Terminal Aerodrome Forecast
Issued by NWS

Home | Current Version | Previous Version | Text Only | Print | Product List | Glossary On
Versions: 1 2 3 4 5 6 7 8 9 10 11 12 13
421
FTUS41 KBTV 270530
TAFMSS
TAF
KMSS 270530Z 2706/2806 23008KT P6SM SKC
     FM272100 24007KT P6SM VCSH BKN060
     FM280300 25006KT P6SM BKN070=

USA.gov is the U.S. government's official web portal to all federal, state and local government web resources and services.